createdAt,value
2023-03-20T00:00:01.920Z,3.70
2023-03-20T00:02:28.417Z,4.63
2023-03-20T00:04:57.373Z,6.22
2023-03-20T00:07:28.846Z,4.80
2023-03-20T00:09:57.947Z,5.13
2023-03-20T00:12:26.908Z,5.10
2023-03-20T00:14:53.489Z,5.30
2023-03-20T00:17:21.110Z,6.53
2023-03-20T00:19:47.761Z,4.25
2023-03-20T00:22:14.248Z,4.40
2023-03-20T00:24:41.107Z,7.05
2023-03-20T00:27:10.963Z,4.88
2023-03-20T00:29:37.394Z,7.72
2023-03-20T00:32:03.812Z,5.68
2023-03-20T00:34:31.660Z,4.55
2023-03-20T00:36:58.243Z,5.00
2023-03-20T00:39:24.848Z,4.90
2023-03-20T00:41:51.604Z,4.80
2023-03-20T00:44:30.436Z,6.20
2023-03-20T00:47:00.618Z,4.18
2023-03-20T00:49:32.594Z,6.45
2023-03-20T00:51:59.332Z,6.13
2023-03-20T00:54:25.739Z,4.93
2023-03-20T00:56:55.360Z,6.35
2023-03-20T00:59:25.052Z,5.00
2023-03-20T01:01:51.547Z,5.85
2023-03-20T01:04:19.534Z,6.60
2023-03-20T01:06:46.404Z,6.85
2023-03-20T01:09:12.937Z,6.40
2023-03-20T01:11:40.008Z,8.15
2023-03-20T01:14:11.853Z,6.95
2023-03-20T01:16:38.298Z,9.95
2023-03-20T01:19:04.726Z,7.35
2023-03-20T01:21:31.375Z,9.05
2023-03-20T01:23:57.838Z,8.68
2023-03-20T01:26:29.196Z,8.93
2023-03-20T01:28:55.578Z,8.60
2023-03-20T01:31:22.038Z,8.77
2023-03-20T01:33:48.470Z,9.70
2023-03-20T01:36:17.742Z,6.35
2023-03-20T01:38:44.176Z,5.93
2023-03-20T01:41:15.039Z,7.28
2023-03-20T01:43:41.408Z,6.30
2023-03-20T01:46:19.420Z,5.22
2023-03-20T01:48:52.584Z,5.47
2023-03-20T01:51:23.381Z,5.60
2023-03-20T01:53:52.913Z,5.07
2023-03-20T01:56:19.990Z,5.05
2023-03-20T01:58:49.437Z,4.80
2023-03-20T02:01:16.695Z,6.93
2023-03-20T02:03:44.566Z,6.65
2023-03-20T02:06:11.312Z,4.82
2023-03-20T02:08:41.955Z,5.45
2023-03-20T02:11:09.547Z,5.10
2023-03-20T02:13:36.014Z,5.18
2023-03-20T02:16:16.377Z,6.18
2023-03-20T02:18:44.453Z,4.82
2023-03-20T02:21:17.083Z,5.07
2023-03-20T02:24:02.347Z,5.65
2023-03-20T02:26:38.576Z,5.72
2023-03-20T02:29:17.243Z,5.03
2023-03-20T02:31:56.610Z,5.35
2023-03-20T02:34:42.339Z,5.73
2023-03-20T02:37:27.174Z,5.03
2023-03-20T02:39:59.622Z,6.25
2023-03-20T02:42:34.039Z,7.97
2023-03-20T02:45:12.828Z,6.00
2023-03-20T02:47:48.886Z,7.03
2023-03-20T02:50:18.230Z,7.45
2023-03-20T02:52:47.673Z,9.60
2023-03-20T02:55:21.553Z,7.05
2023-03-20T02:57:51.972Z,7.10
2023-03-20T03:00:24.575Z,4.88
2023-03-20T03:02:54.129Z,7.18
2023-03-20T03:05:25.327Z,5.95
2023-03-20T03:07:54.839Z,6.70
2023-03-20T03:10:27.343Z,7.18
2023-03-20T03:12:55.165Z,6.07
2023-03-20T03:15:31.105Z,9.27
2023-03-20T03:17:58.368Z,8.98
2023-03-20T03:20:27.842Z,10.82
2023-03-20T03:22:54.198Z,8.50
2023-03-20T03:25:23.876Z,8.95
2023-03-20T03:27:54.648Z,10.77
2023-03-20T03:30:26.042Z,8.45
2023-03-20T03:33:17.174Z,11.10
2023-03-20T03:35:44.092Z,11.52
2023-03-20T03:38:31.027Z,17.52
2023-03-20T03:41:19.605Z,26.15
2023-03-20T03:43:45.904Z,19.65
2023-03-20T03:46:19.923Z,26.02
2023-03-20T03:48:52.639Z,27.25
2023-03-20T03:51:22.537Z,29.25
2023-03-20T03:54:09.822Z,29.27
2023-03-20T03:56:38.556Z,27.65
2023-03-20T03:59:26.444Z,29.67
2023-03-20T04:01:54.259Z,37.33
2023-03-20T04:04:21.490Z,31.27
2023-03-20T04:06:47.876Z,40.00
2023-03-20T04:09:14.270Z,39.13
2023-03-20T04:11:40.916Z,39.13
2023-03-20T04:14:07.901Z,35.70
2023-03-20T04:16:34.314Z,41.83
2023-03-20T04:19:00.765Z,44.35
2023-03-20T04:21:27.196Z,45.17
2023-03-20T04:23:53.589Z,41.33
2023-03-20T04:26:21.459Z,42.90
2023-03-20T04:28:47.822Z,39.83
2023-03-20T04:31:14.285Z,37.47
2023-03-20T04:33:40.718Z,38.33
2023-03-20T04:36:08.137Z,41.47
2023-03-20T04:38:34.503Z,36.60
2023-03-20T04:41:00.924Z,41.78
2023-03-20T04:43:27.274Z,41.35
2023-03-20T04:45:53.699Z,38.65
2023-03-20T04:48:20.115Z,42.92
2023-03-20T04:50:48.408Z,46.55
2023-03-20T04:53:15.453Z,47.25
2023-03-20T04:55:41.821Z,51.22
2023-03-20T04:58:08.258Z,45.80
2023-03-20T05:00:34.634Z,49.75
2023-03-20T05:03:01.517Z,48.50
2023-03-20T05:05:29.429Z,53.17
2023-03-20T05:07:56.803Z,42.42
2023-03-20T05:10:23.157Z,51.50
2023-03-20T05:12:49.433Z,45.80
2023-03-20T05:15:15.809Z,47.30
2023-03-20T05:17:42.291Z,53.20
2023-03-20T05:20:09.318Z,46.63
2023-03-20T05:22:35.696Z,46.65
2023-03-20T05:25:02.057Z,49.70
2023-03-20T05:27:28.368Z,60.50
2023-03-20T05:29:54.670Z,53.80
2023-03-20T05:32:21.124Z,51.05
2023-03-20T05:34:47.667Z,61.28
2023-03-20T05:37:14.093Z,52.67
2023-03-20T05:39:40.449Z,58.97
2023-03-20T05:42:06.846Z,54.58
2023-03-20T05:44:33.201Z,53.50
2023-03-20T05:46:59.593Z,55.80
2023-03-20T05:49:25.956Z,56.55
2023-03-20T05:51:52.346Z,61.50
2023-03-20T05:54:18.765Z,51.05
2023-03-20T05:56:45.435Z,53.70
2023-03-20T05:59:12.118Z,51.97
2023-03-20T06:01:38.490Z,53.67
2023-03-20T06:04:04.928Z,51.75
2023-03-20T06:06:31.315Z,53.28
2023-03-20T06:08:57.669Z,54.85
2023-03-20T06:11:24.092Z,47.45
2023-03-20T06:13:54.514Z,46.40
2023-03-20T06:16:21.041Z,50.05
2023-03-20T06:18:47.418Z,48.03
2023-03-20T06:21:13.775Z,46.60
2023-03-20T06:23:40.574Z,49.00
2023-03-20T06:26:07.888Z,50.85
2023-03-20T06:28:34.444Z,54.70
2023-03-20T06:31:01.109Z,46.30
2023-03-20T06:33:27.502Z,51.03
2023-03-20T06:35:54.001Z,45.10
2023-03-20T06:38:20.459Z,42.10
2023-03-20T06:40:46.838Z,47.85
2023-03-20T06:43:13.248Z,45.30
2023-03-20T06:45:39.924Z,46.05
2023-03-20T06:48:07.104Z,43.15
2023-03-20T06:50:33.461Z,49.95
2023-03-20T06:52:59.864Z,63.50
2023-03-20T06:55:26.221Z,49.92
2023-03-20T06:57:52.598Z,51.97
2023-03-20T07:00:20.457Z,41.70
2023-03-20T07:02:47.281Z,47.80
2023-03-20T07:05:13.748Z,52.53
2023-03-20T07:07:40.217Z,50.67
2023-03-20T07:10:07.225Z,49.17
2023-03-20T07:12:34.458Z,46.28
2023-03-20T07:15:01.092Z,48.80
2023-03-20T07:17:27.720Z,47.17
2023-03-20T07:19:54.176Z,52.05
2023-03-20T07:22:26.243Z,44.83
2023-03-20T07:24:52.971Z,48.85
2023-03-20T07:27:51.599Z,46.55
2023-03-20T07:30:27.999Z,46.42
2023-03-20T07:33:33.363Z,55.38
2023-03-20T07:36:00.129Z,57.17
2023-03-20T07:38:26.842Z,47.47
2023-03-20T07:40:54.474Z,59.25
2023-03-20T07:43:21.262Z,49.05
2023-03-20T07:45:47.800Z,58.17
2023-03-20T07:48:17.069Z,57.22
2023-03-20T07:50:54.020Z,58.03
2023-03-20T07:53:23.270Z,53.53
2023-03-20T07:55:49.932Z,45.00
2023-03-20T07:58:19.437Z,55.22
2023-03-20T08:00:46.132Z,42.60
2023-03-20T08:03:12.938Z,53.30
2023-03-20T08:05:47.086Z,51.35
2023-03-20T08:08:18.063Z,52.05
2023-03-20T08:10:56.438Z,46.85
2023-03-20T08:13:39.940Z,52.63
2023-03-20T08:16:09.841Z,51.28
2023-03-20T08:18:48.486Z,54.40
2023-03-20T08:21:47.718Z,52.90
2023-03-20T08:24:28.096Z,52.35
2023-03-20T08:27:03.977Z,51.35
2023-03-20T08:29:41.919Z,55.25
2023-03-20T08:35:22.045Z,64.65
2023-03-20T08:45:58.237Z,64.57
2023-03-20T08:49:15.451Z,54.50
2023-03-20T08:54:45.435Z,62.92
2023-03-20T09:01:18.614Z,61.83
2023-03-20T09:06:43.958Z,69.55
2023-03-20T09:09:12.020Z,65.03
2023-03-20T09:14:45.717Z,61.58
2023-03-20T09:17:15.677Z,57.15
2023-03-20T09:19:44.641Z,56.10
2023-03-20T09:22:15.035Z,55.72
2023-03-20T09:24:53.933Z,59.50
2023-03-20T09:27:27.672Z,58.58
2023-03-20T09:29:59.697Z,68.07
2023-03-20T09:36:00.955Z,61.63
2023-03-20T09:38:27.706Z,65.80
2023-03-20T09:41:02.769Z,63.30
2023-03-20T09:43:47.613Z,63.47
2023-03-20T09:46:37.287Z,68.28
2023-03-20T09:52:16.214Z,74.15
2023-03-20T09:55:03.110Z,61.70
2023-03-20T09:57:37.793Z,69.45
2023-03-20T10:00:21.829Z,70.00
2023-03-20T10:02:58.213Z,79.22
2023-03-20T10:05:49.830Z,65.47
2023-03-20T10:08:26.326Z,64.57
2023-03-20T10:10:58.800Z,60.00
2023-03-20T10:13:35.973Z,67.68
2023-03-20T10:16:21.738Z,57.65
2023-03-20T10:19:01.031Z,67.70
2023-03-20T10:21:35.469Z,70.23
2023-03-20T10:24:18.401Z,63.05
2023-03-20T10:26:47.544Z,56.83
2023-03-20T10:29:29.858Z,62.47
2023-03-20T10:32:19.462Z,66.28
2023-03-20T10:35:00.460Z,61.17
2023-03-20T10:37:29.838Z,63.28
2023-03-20T10:40:15.610Z,65.68
2023-03-20T10:42:45.771Z,66.13
2023-03-20T10:47:52.479Z,59.15
2023-03-20T10:50:24.735Z,52.42
2023-03-20T10:53:01.025Z,60.08
2023-03-20T10:55:30.632Z,51.03
2023-03-20T10:58:04.785Z,52.10
2023-03-20T11:00:34.934Z,46.03
2023-03-20T11:03:05.751Z,41.95
2023-03-20T11:05:36.943Z,40.20
2023-03-20T11:08:07.583Z,37.78
2023-03-20T11:10:38.765Z,33.45
2023-03-20T11:13:24.260Z,35.15
2023-03-20T11:15:52.249Z,28.65
2023-03-20T11:18:28.560Z,32.60
2023-03-20T11:20:56.393Z,30.60
2023-03-20T11:23:47.612Z,26.75
2023-03-20T11:26:18.932Z,24.55
2023-03-20T11:28:53.600Z,23.13
2023-03-20T11:31:25.031Z,26.23
2023-03-20T11:33:59.838Z,18.88
2023-03-20T11:36:28.332Z,20.13
2023-03-20T11:38:58.735Z,20.42
2023-03-20T11:41:29.492Z,20.45
2023-03-20T11:43:56.090Z,17.63
2023-03-20T11:46:23.957Z,20.02
2023-03-20T11:49:02.671Z,15.38
2023-03-20T11:51:35.471Z,15.73
2023-03-20T11:54:04.364Z,14.52
2023-03-20T11:56:33.053Z,16.38
2023-03-20T11:59:04.509Z,17.42
2023-03-20T12:01:45.062Z,15.48
2023-03-20T12:04:32.045Z,14.95
2023-03-20T12:07:13.216Z,14.27
2023-03-20T12:09:43.020Z,14.52
2023-03-20T12:12:28.723Z,13.13
2023-03-20T12:15:08.153Z,14.00
2023-03-20T12:17:42.963Z,13.13
2023-03-20T12:20:23.816Z,14.43
2023-03-20T12:23:23.645Z,13.73
2023-03-20T12:26:22.197Z,19.42
2023-03-20T12:29:02.986Z,12.77
2023-03-20T12:31:48.273Z,17.98
2023-03-20T12:34:49.469Z,14.32
2023-03-20T12:37:19.002Z,14.45
2023-03-20T12:40:07.714Z,13.35
2023-03-20T12:43:11.082Z,13.47
2023-03-20T12:45:45.062Z,14.73
2023-03-20T12:48:30.478Z,15.52
2023-03-20T12:51:08.793Z,18.58
2023-03-20T12:53:53.606Z,13.38
2023-03-20T12:56:20.142Z,17.48
2023-03-20T12:59:06.619Z,18.17
2023-03-20T13:01:45.611Z,16.23
2023-03-20T13:04:42.830Z,15.68
2023-03-20T13:07:15.716Z,16.05
2023-03-20T13:09:59.857Z,14.25
2023-03-20T13:12:29.360Z,15.70
2023-03-20T13:15:08.076Z,14.00
2023-03-20T13:17:38.885Z,16.48
2023-03-20T13:20:27.557Z,15.32
2023-03-20T13:22:57.102Z,15.20
2023-03-20T13:25:40.094Z,13.20
2023-03-20T13:28:27.096Z,18.25
2023-03-20T13:31:14.105Z,15.38
2023-03-20T13:34:07.715Z,16.83
2023-03-20T13:36:41.442Z,16.90
2023-03-20T13:39:27.811Z,12.10
2023-03-20T13:41:59.226Z,16.92
2023-03-20T13:44:28.348Z,16.20
2023-03-20T13:47:09.033Z,17.67
2023-03-20T13:49:42.186Z,16.80
2023-03-20T13:52:22.682Z,18.13
2023-03-20T13:55:11.806Z,13.65
2023-03-20T13:57:57.015Z,14.77
2023-03-20T14:00:43.566Z,14.65
2023-03-20T14:03:25.983Z,13.38
2023-03-20T14:05:52.814Z,15.70
2023-03-20T14:08:41.805Z,15.05
2023-03-20T14:11:08.930Z,12.43
2023-03-20T14:13:36.074Z,18.00
2023-03-20T14:16:07.655Z,15.10
2023-03-20T14:18:34.274Z,16.05
2023-03-20T14:21:02.450Z,17.90
2023-03-20T14:23:36.737Z,13.43
2023-03-20T14:26:30.649Z,16.27
2023-03-20T14:29:34.591Z,13.68
2023-03-20T14:38:54.522Z,13.25
2023-03-20T14:41:45.167Z,14.38
2023-03-20T14:44:18.060Z,16.60
2023-03-20T14:46:46.334Z,13.25
2023-03-20T14:49:23.854Z,11.77
2023-03-20T14:51:53.702Z,16.92
2023-03-20T14:54:30.961Z,15.40
2023-03-20T14:57:12.394Z,12.45
2023-03-20T14:59:43.792Z,14.52
2023-03-20T15:02:24.576Z,11.90
2023-03-20T15:04:52.393Z,10.15
2023-03-20T15:07:37.100Z,12.10
2023-03-20T15:10:05.103Z,14.90
2023-03-20T15:12:35.035Z,8.77
2023-03-20T15:15:03.291Z,8.18
2023-03-20T15:17:40.259Z,7.95
2023-03-20T15:20:09.769Z,7.97
2023-03-20T15:22:47.732Z,14.45
2023-03-20T15:25:16.484Z,6.05
2023-03-20T15:27:42.899Z,10.40
2023-03-20T15:30:10.588Z,6.45
2023-03-20T15:32:37.015Z,5.40
2023-03-20T15:35:05.224Z,7.97
2023-03-20T15:37:41.675Z,7.05
2023-03-20T15:40:13.115Z,7.85
2023-03-20T15:42:39.462Z,5.03
2023-03-20T15:45:22.677Z,6.00
2023-03-20T15:47:48.943Z,6.05
2023-03-20T15:50:16.564Z,4.82
2023-03-20T15:52:52.992Z,9.07
2023-03-20T15:55:20.889Z,8.75
2023-03-20T15:57:50.318Z,5.97
2023-03-20T16:00:26.131Z,4.57
2023-03-20T16:02:53.680Z,4.95
2023-03-20T16:05:22.205Z,4.55
2023-03-20T16:07:48.572Z,7.07
2023-03-20T16:10:25.757Z,4.80
2023-03-20T16:12:55.210Z,6.43
2023-03-20T16:15:24.997Z,4.72
2023-03-20T16:17:57.452Z,6.32
2023-03-20T16:20:26.175Z,8.20
2023-03-20T16:22:55.414Z,4.43
2023-03-20T16:25:23.992Z,7.20
2023-03-20T16:27:51.179Z,4.97
2023-03-20T16:30:25.387Z,7.00
2023-03-20T16:33:02.187Z,5.22
2023-03-20T16:35:40.449Z,11.27
2023-03-20T16:38:16.542Z,4.25
2023-03-20T16:40:42.928Z,4.85
2023-03-20T16:43:20.107Z,6.55
2023-03-20T16:45:49.350Z,5.55
2023-03-20T16:48:21.559Z,7.57
2023-03-20T16:50:53.121Z,7.72
2023-03-20T16:53:20.392Z,4.90
2023-03-20T16:55:48.166Z,8.27
2023-03-20T16:58:23.012Z,7.88
2023-03-20T17:00:57.307Z,6.45
2023-03-20T17:03:27.876Z,13.38
2023-03-20T17:05:57.858Z,7.32
2023-03-20T17:08:45.432Z,8.95
2023-03-20T17:11:13.562Z,6.20
2023-03-20T17:13:41.329Z,7.88
2023-03-20T17:19:32.453Z,9.90
2023-03-20T17:22:03.489Z,8.15
2023-03-20T17:24:29.988Z,11.32
2023-03-20T17:26:57.165Z,7.57
2023-03-20T17:29:23.541Z,12.30
2023-03-20T17:31:50.086Z,7.82
2023-03-20T17:34:16.532Z,10.00
2023-03-20T17:36:43.780Z,9.40
2023-03-20T17:39:15.340Z,12.45
2023-03-20T17:41:41.721Z,9.27
2023-03-20T17:44:08.961Z,7.82
2023-03-20T17:46:46.265Z,8.48
2023-03-20T17:49:28.392Z,8.30
2023-03-20T17:51:57.009Z,9.18
2023-03-20T17:54:23.423Z,9.45
2023-03-20T17:56:49.825Z,9.27
2023-03-20T17:59:16.378Z,9.90
2023-03-20T18:01:42.871Z,8.50
2023-03-20T18:04:09.312Z,14.25
2023-03-20T18:06:35.697Z,9.48
2023-03-20T18:09:02.487Z,10.23
2023-03-20T18:11:29.003Z,11.27
2023-03-20T18:13:55.606Z,10.77
2023-03-20T18:16:26.285Z,9.38
2023-03-20T18:18:53.086Z,9.48
2023-03-20T18:21:19.478Z,9.68
2023-03-20T18:23:45.970Z,10.15
2023-03-20T18:26:23.656Z,13.02
2023-03-20T21:09:03.164Z,6.85
2023-03-20T21:11:29.851Z,7.55
2023-03-20T21:13:56.228Z,5.85
2023-03-20T21:16:23.242Z,5.65
2023-03-20T21:18:49.760Z,5.55
2023-03-20T21:21:16.353Z,8.45
2023-03-20T21:23:42.778Z,10.52
2023-03-20T21:26:09.453Z,6.82
2023-03-20T21:28:36.541Z,9.13
2023-03-20T21:31:23.224Z,7.95
2023-03-20T21:33:51.494Z,8.02
2023-03-20T21:36:18.113Z,11.32
2023-03-20T21:39:09.052Z,7.53
2023-03-20T21:41:39.754Z,13.02
2023-03-20T21:44:06.967Z,8.93
2023-03-20T21:47:09.682Z,13.48
2023-03-20T22:03:37.022Z,9.48
2023-03-20T22:06:57.191Z,11.05
2023-03-20T22:15:16.373Z,12.05
2023-03-20T22:20:42.251Z,12.48
2023-03-20T22:23:29.297Z,9.77
2023-03-20T22:26:20.945Z,10.13
2023-03-20T22:29:11.815Z,8.23
2023-03-20T22:34:39.982Z,14.85
2023-03-20T22:45:09.783Z,6.90
2023-03-20T22:47:36.675Z,11.32
2023-03-20T22:50:03.061Z,8.85
2023-03-20T22:52:45.432Z,11.57
2023-03-20T22:55:14.301Z,11.90
2023-03-20T22:57:47.570Z,8.68
2023-03-20T23:00:19.108Z,11.55
2023-03-20T23:02:47.630Z,9.00
2023-03-20T23:05:13.997Z,13.20
2023-03-20T23:07:40.677Z,11.60
2023-03-20T23:10:10.452Z,10.25
2023-03-20T23:12:37.998Z,5.38
2023-03-20T23:15:04.986Z,10.90
2023-03-20T23:17:32.304Z,13.95
2023-03-20T23:20:10.345Z,9.05
2023-03-20T23:22:37.139Z,8.27
2023-03-20T23:25:13.302Z,13.25
2023-03-20T23:27:44.805Z,11.55
2023-03-20T23:30:11.546Z,7.20
2023-03-20T23:32:38.768Z,9.77
2023-03-20T23:35:05.727Z,8.68
2023-03-20T23:37:32.295Z,11.13
2023-03-20T23:39:58.605Z,8.82
2023-03-20T23:42:30.674Z,11.20
2023-03-20T23:45:02.155Z,6.93
2023-03-20T23:47:44.227Z,5.50
2023-03-20T23:50:14.626Z,12.18
2023-03-20T23:52:49.970Z,10.18
2023-03-20T23:55:23.738Z,6.13
2023-03-20T23:57:50.277Z,9.73
